Clayville, Rhode Island
Current Conditions -  °F | °C
As of 3:51 PM on Thursday 27 Nov 2014 (Local Time) from KPVD Reporting Station
Overcast Overcast  
Wind Chill: 30°   Ceiling: 2200
Heat Index: 37°   Visibility: 10mi
Dew Point: 31°   Wind: 9mph
Humidity: 79%   Direction: 350°N
Pressure: 29.96"   Gusts: NA
Location:  41.78°N, 71.68°W
Report Text: KPVD 272051Z 35008KT 10SM SCT014 OVC022 03/M01 A2996 RMK AO2 RAE34 SLP147 P0000 60000 T00281006 53007
Loading
Personal Weather Stations






























Interactive Weather Map New forecast layout! Learn more

10-Day Weather Forecast

Advertisements
Track Severe Weather on mobile